Time,TemperatureF,DewpointF,PressureIn,WindDirection,WindDirectionDegrees,WindSpeedMPH,WindSpeedGustMPH,Humidity,HourlyPrecipIn,Conditions,Clouds,dailyrainin,SoftwareType,DateUTC
2013-03-12 00:00:00,41.2,35.8,30.24,SSW,205,11.0,21.0,81,0.00,,,0.00,Wunderground v.1.15,2013-03-12 04:00:00,
2013-03-12 00:05:00,41.1,36.0,30.24,SW,227,11.0,21.0,82,0.00,,,0.00,Wunderground v.1.15,2013-03-12 04:05:00,
2013-03-12 00:10:00,41.1,36.0,30.24,SW,215,11.0,11.0,82,0.00,,,0.00,Wunderground v.1.15,2013-03-12 04:10:00,
2013-03-12 00:15:00,41.0,35.9,30.24,SW,223,10.0,14.0,82,0.00,,,0.00,Wunderground v.1.15,2013-03-12 04:15:00,
2013-03-12 00:20:00,40.9,35.8,30.24,SSW,213,10.0,11.0,82,0.00,,,0.00,Wunderground v.1.15,2013-03-12 04:20:00,
2013-03-12 00:25:00,40.9,35.8,30.24,SW,220,11.0,11.0,82,0.00,,,0.00,Wunderground v.1.15,2013-03-12 04:25:00,
2013-03-12 00:30:00,40.9,35.8,30.25,SSW,208,10.0,10.0,82,0.00,,,0.00,Wunderground v.1.15,2013-03-12 04:30:00,
2013-03-12 00:35:00,40.8,35.7,30.24,SW,225,10.0,10.0,82,0.00,,,0.00,Wunderground v.1.15,2013-03-12 04:35:00,
2013-03-12 00:45:00,40.7,35.9,30.24,SSE,162,9.0,9.0,83,0.00,,,0.00,Wunderground v.1.15,2013-03-12 04:45:00,
2013-03-12 00:50:00,40.6,35.8,30.24,SW,214,9.0,9.0,83,0.00,,,0.00,Wunderground v.1.15,2013-03-12 04:50:00,
2013-03-12 00:55:00,40.6,35.8,30.23,SSE,150,8.0,9.0,83,0.00,,,0.00,Wunderground v.1.15,2013-03-12 04:55:00,
2013-03-12 01:00:00,40.5,36.0,30.23,SSW,196,8.0,8.0,84,0.00,,,0.00,Wunderground v.1.15,2013-03-12 05:00:00,
2013-03-12 01:05:00,40.7,36.2,30.23,SW,219,9.0,9.0,84,0.00,,,0.00,Wunderground v.1.15,2013-03-12 05:05:00,
2013-03-12 01:10:00,40.7,35.9,30.23,SSW,209,8.0,11.0,83,0.00,,,0.00,Wunderground v.1.15,2013-03-12 05:10:00,
2013-03-12 01:15:00,40.7,36.2,30.23,SW,232,8.0,11.0,84,0.00,,,0.00,Wunderground v.1.15,2013-03-12 05:15:00,
2013-03-12 01:20:00,40.6,36.1,30.23,SSW,211,8.0,8.0,84,0.00,,,0.00,Wunderground v.1.15,2013-03-12 05:20:00,
2013-03-12 01:30:00,40.5,36.3,30.24,SSW,213,8.0,8.0,85,0.00,,,0.00,Wunderground v.1.15,2013-03-12 05:30:00,
2013-03-12 01:40:00,40.3,36.1,30.24,SSW,205,7.0,9.0,85,0.00,,,0.00,Wunderground v.1.15,2013-03-12 05:40:00,
2013-03-12 01:45:00,40.3,36.4,30.24,SSW,213,7.0,9.0,86,0.00,,,0.00,Wunderground v.1.15,2013-03-12 05:45:00,
2013-03-12 01:50:00,40.2,36.3,30.23,SW,220,6.0,10.0,86,0.00,,,0.00,Wunderground v.1.15,2013-03-12 05:50:00,
2013-03-12 01:55:00,40.3,36.7,30.23,WSW,248,6.0,10.0,87,0.00,,,0.00,Wunderground v.1.15,2013-03-12 05:55:00,
2013-03-12 02:00:00,40.4,36.8,30.23,West,273,8.0,8.0,87,0.00,,,0.00,Wunderground v.1.15,2013-03-12 06:00:00,
2013-03-12 02:05:00,40.2,36.6,30.24,WSW,252,7.0,12.0,87,0.00,,,0.00,Wunderground v.1.15,2013-03-12 06:05:00,
2013-03-12 02:10:00,40.1,36.5,30.24,SSW,206,6.0,6.0,87,0.00,,,0.00,Wunderground v.1.15,2013-03-12 06:10:00,
2013-03-12 02:15:00,40.3,37.0,30.24,West,269,7.0,7.0,88,0.00,,,0.00,Wunderground v.1.15,2013-03-12 06:15:00,
2013-03-12 02:20:00,40.4,36.8,30.24,SW,214,6.0,6.0,87,0.00,,,0.00,Wunderground v.1.15,2013-03-12 06:20:00,
2013-03-12 02:30:00,40.2,36.9,30.24,WSW,254,4.0,10.0,88,0.00,,,0.00,Wunderground v.1.15,2013-03-12 06:30:00,
2013-03-12 02:35:00,40.3,37.0,30.23,SW,227,6.0,13.0,88,0.00,,,0.00,Wunderground v.1.15,2013-03-12 06:35:00,
2013-03-12 02:40:00,40.3,37.0,30.23,West,263,6.0,7.0,88,0.00,,,0.00,Wunderground v.1.15,2013-03-12 06:40:00,
2013-03-12 02:45:00,40.4,37.4,30.23,WSW,253,6.0,7.0,89,0.00,,,0.00,Wunderground v.1.15,2013-03-12 06:45:00,
2013-03-12 02:50:00,40.5,37.5,30.22,SSW,212,6.0,6.0,89,0.00,,,0.00,Wunderground v.1.15,2013-03-12 06:50:00,
2013-03-12 02:55:00,40.5,37.5,30.22,WSW,249,5.0,6.0,89,0.00,,,0.00,Wunderground v.1.15,2013-03-12 06:55:00,
2013-03-12 03:00:00,40.6,37.6,30.22,SW,215,5.0,10.0,89,0.00,,,0.00,Wunderground v.1.15,2013-03-12 07:00:00,
2013-03-12 03:05:00,40.8,37.8,30.22,SW,219,6.0,10.0,89,0.00,,,0.00,Wunderground v.1.15,2013-03-12 07:05:00,
2013-03-12 03:15:00,40.8,37.8,30.21,WSW,240,5.0,7.0,89,0.00,,,0.00,Wunderground v.1.15,2013-03-12 07:15:00,
2013-03-12 03:25:00,40.9,37.9,30.22,SW,234,5.0,5.0,89,0.00,,,0.00,Wunderground v.1.15,2013-03-12 07:25:00,
2013-03-12 03:30:00,40.9,37.9,30.21,SW,225,5.0,5.0,89,0.00,,,0.00,Wunderground v.1.15,2013-03-12 07:30:00,
2013-03-12 03:35:00,40.9,37.6,30.21,West,269,4.0,5.0,88,0.00,,,0.00,Wunderground v.1.15,2013-03-12 07:35:00,
2013-03-12 03:40:00,40.9,37.9,30.21,SW,230,4.0,7.0,89,0.00,,,0.00,Wunderground v.1.15,2013-03-12 07:40:00,
2013-03-12 03:45:00,40.8,37.8,30.22,West,280,4.0,7.0,89,0.00,,,0.00,Wunderground v.1.15,2013-03-12 07:45:00,
2013-03-12 03:50:00,40.7,37.7,30.21,South,190,3.0,3.0,89,0.00,,,0.00,Wunderground v.1.15,2013-03-12 07:50:00,
2013-03-12 03:55:00,40.7,38.0,30.21,WSW,255,3.0,10.0,90,0.00,,,0.00,Wunderground v.1.15,2013-03-12 07:55:00,
2013-03-12 04:00:00,41.0,38.3,30.21,SW,229,5.0,5.0,90,0.00,,,0.00,Wunderground v.1.15,2013-03-12 08:00:00,
2013-03-12 04:05:00,41.0,38.3,30.20,SW,236,5.0,6.0,90,0.00,,,0.00,Wunderground v.1.15,2013-03-12 08:05:00,
2013-03-12 04:10:00,41.0,38.3,30.19,SW,226,4.0,10.0,90,0.00,,,0.00,Wunderground v.1.15,2013-03-12 08:10:00,
2013-03-12 04:15:00,41.2,38.5,30.19,SW,221,5.0,10.0,90,0.00,,,0.00,Wunderground v.1.15,2013-03-12 08:15:00,
2013-03-12 04:25:00,41.5,38.8,30.20,SSW,211,7.0,9.0,90,0.00,,,0.00,Wunderground v.1.15,2013-03-12 08:25:00,
2013-03-12 04:30:00,41.4,38.4,30.20,SW,226,5.0,12.0,89,0.00,,,0.00,Wunderground v.1.15,2013-03-12 08:30:00,
2013-03-12 04:35:00,41.3,38.6,30.20,SW,214,5.0,12.0,90,0.00,,,0.00,Wunderground v.1.15,2013-03-12 08:35:00,
2013-03-12 04:40:00,41.2,38.5,30.20,WSW,241,6.0,12.0,90,0.00,,,0.00,Wunderground v.1.15,2013-03-12 08:40:00,
2013-03-12 04:45:00,41.3,38.9,30.20,SW,219,6.0,12.0,91,0.00,,,0.00,Wunderground v.1.15,2013-03-12 08:45:00,
2013-03-12 04:50:00,41.3,38.6,30.20,SW,236,5.0,5.0,90,0.00,,,0.00,Wunderground v.1.15,2013-03-12 08:50:00,
2013-03-12 04:55:00,41.3,38.9,30.20,SW,225,4.0,5.0,91,0.00,,,0.00,Wunderground v.1.15,2013-03-12 08:55:00,
2013-03-12 05:00:00,41.3,38.9,30.19,South,184,5.0,5.0,91,0.00,,,0.00,Wunderground v.1.15,2013-03-12 09:00:00,
2013-03-12 05:05:00,41.3,38.9,30.18,SW,222,5.0,5.0,91,0.00,,,0.00,Wunderground v.1.15,2013-03-12 09:05:00,
2013-03-12 05:10:00,41.3,38.9,30.18,SW,230,5.0,5.0,91,0.00,,,0.00,Wunderground v.1.15,2013-03-12 09:10:00,
2013-03-12 05:15:00,41.6,39.2,30.18,SSW,202,5.0,5.0,91,0.00,,,0.00,Wunderground v.1.15,2013-03-12 09:15:00,
2013-03-12 05:25:00,41.8,39.6,30.18,SW,236,6.0,8.0,92,0.00,,,0.00,Wunderground v.1.15,2013-03-12 09:25:00,
2013-03-12 05:30:00,41.8,39.9,30.18,SSW,210,5.0,5.0,93,0.00,,,0.00,Wunderground v.1.15,2013-03-12 09:30:00,
2013-03-12 05:35:00,41.8,39.9,30.18,WSW,258,5.0,5.0,93,0.00,,,0.00,Wunderground v.1.15,2013-03-12 09:35:00,
2013-03-12 05:40:00,41.7,39.8,30.18,SSW,205,3.0,5.0,93,0.00,,,0.00,Wunderground v.1.15,2013-03-12 09:40:00,
2013-03-12 05:45:00,41.6,39.7,30.19,SW,217,4.0,9.0,93,0.00,,,0.00,Wunderground v.1.15,2013-03-12 09:45:00,
2013-03-12 05:50:00,41.5,39.6,30.19,SW,228,5.0,5.0,93,0.00,,,0.00,Wunderground v.1.15,2013-03-12 09:50:00,
2013-03-12 05:55:00,41.2,39.3,30.18,SSE,165,3.0,5.0,93,0.00,,,0.00,Wunderground v.1.15,2013-03-12 09:55:00,
2013-03-12 06:00:00,41.0,39.1,30.18,South,183,3.0,3.0,93,0.00,,,0.00,Wunderground v.1.15,2013-03-12 10:00:00,
2013-03-12 06:05:00,40.7,38.8,30.18,SW,219,3.0,3.0,93,0.00,,,0.00,Wunderground v.1.15,2013-03-12 10:05:00,
2013-03-12 06:15:00,40.9,39.3,30.19,SW,215,4.0,12.0,94,0.00,,,0.00,Wunderground v.1.15,2013-03-12 10:15:00,
2013-03-12 06:25:00,40.7,39.1,30.19,SSW,200,3.0,11.0,94,0.00,,,0.00,Wunderground v.1.15,2013-03-12 10:25:00,
2013-03-12 06:30:00,40.6,39.0,30.19,WSW,257,4.0,4.0,94,0.00,,,0.00,Wunderground v.1.15,2013-03-12 10:30:00,
2013-03-12 06:35:00,40.6,39.0,30.19,WNW,294,3.0,4.0,94,0.00,,,0.00,Wunderground v.1.15,2013-03-12 10:35:00,
2013-03-12 06:45:00,40.6,39.3,30.19,SW,216,3.0,5.0,95,0.00,,,0.00,Wunderground v.1.15,2013-03-12 10:45:00,
2013-03-12 06:50:00,40.8,39.5,30.19,SW,216,5.0,5.0,95,0.00,,,0.00,Wunderground v.1.15,2013-03-12 10:50:00,
2013-03-12 06:55:00,40.6,39.0,30.19,WSW,242,4.0,5.0,94,0.00,,,0.00,Wunderground v.1.15,2013-03-12 10:55:00,
2013-03-12 07:00:00,40.6,39.3,30.19,SSW,211,3.0,3.0,95,0.00,,,0.00,Wunderground v.1.15,2013-03-12 11:00:00,
2013-03-12 07:10:00,40.8,39.5,30.19,SW,236,4.0,4.0,95,0.00,,,0.00,Wunderground v.1.15,2013-03-12 11:10:00,
2013-03-12 07:15:00,40.7,39.4,30.19,SSW,209,4.0,4.0,95,0.00,,,0.00,Wunderground v.1.15,2013-03-12 11:15:00,
2013-03-12 07:20:00,40.7,39.4,30.19,WSW,242,4.0,6.0,95,0.00,,,0.00,Wunderground v.1.15,2013-03-12 11:20:00,
2013-03-12 07:25:00,40.7,39.4,30.19,WSW,241,4.0,6.0,95,0.00,,,0.00,Wunderground v.1.15,2013-03-12 11:25:00,
2013-03-12 07:35:00,41.0,39.7,30.18,SW,223,4.0,4.0,95,0.00,,,0.00,Wunderground v.1.15,2013-03-12 11:35:00,
2013-03-12 07:40:00,41.1,39.8,30.18,SW,226,4.0,4.0,95,0.00,,,0.00,Wunderground v.1.15,2013-03-12 11:40:00,
2013-03-12 07:45:00,41.1,39.8,30.18,SSW,211,3.0,4.0,95,0.00,,,0.00,Wunderground v.1.15,2013-03-12 11:45:00,
2013-03-12 07:50:00,41.1,39.8,30.18,SSW,209,3.0,3.0,95,0.00,,,0.00,Wunderground v.1.15,2013-03-12 11:50:00,
2013-03-12 07:55:00,41.3,40.0,30.19,SSW,208,4.0,4.0,95,0.00,,,0.00,Wunderground v.1.15,2013-03-12 11:55:00,
2013-03-12 08:00:00,41.4,40.1,30.19,SSW,205,4.0,4.0,95,0.00,,,0.00,Wunderground v.1.15,2013-03-12 12:00:00,
2013-03-12 08:05:00,41.5,40.2,30.18,SE,140,3.0,4.0,95,0.00,,,0.00,Wunderground v.1.15,2013-03-12 12:05:00,
2013-03-12 08:10:00,41.5,40.2,30.18,SSW,198,2.0,2.0,95,0.00,,,0.00,Wunderground v.1.15,2013-03-12 12:10:00,
2013-03-12 08:15:00,41.6,40.0,30.17,SSW,200,2.0,2.0,94,0.00,,,0.00,Wunderground v.1.15,2013-03-12 12:15:00,
2013-03-12 08:20:00,41.5,39.9,30.17,SSW,199,1.0,2.0,94,0.00,,,0.00,Wunderground v.1.15,2013-03-12 12:20:00,
2013-03-12 08:25:00,41.6,40.0,30.17,WSW,241,1.0,2.0,94,0.00,,,0.00,Wunderground v.1.15,2013-03-12 12:25:00,
2013-03-12 08:30:00,41.8,40.5,30.17,WSW,242,1.0,2.0,95,0.00,,,0.00,Wunderground v.1.15,2013-03-12 12:30:00,
2013-03-12 08:35:00,42.0,40.7,30.18,SW,224,2.0,4.0,95,0.00,,,0.00,Wunderground v.1.15,2013-03-12 12:35:00,
2013-03-12 08:45:00,42.4,40.8,30.18,SSW,213,3.0,3.0,94,0.00,,,0.00,Wunderground v.1.15,2013-03-12 12:45:00,
2013-03-12 08:50:00,42.5,40.9,30.17,SSW,212,4.0,4.0,94,0.00,,,0.00,Wunderground v.1.15,2013-03-12 12:50:00,
2013-03-12 08:55:00,42.4,40.8,30.17,SSW,202,3.0,4.0,94,0.00,,,0.00,Wunderground v.1.15,2013-03-12 12:55:00,
2013-03-12 09:00:00,42.5,40.9,30.17,SW,229,3.0,3.0,94,0.00,,,0.00,Wunderground v.1.15,2013-03-12 13:00:00,
2013-03-12 09:05:00,42.5,40.9,30.17,WSW,241,3.0,3.0,94,0.00,,,0.00,Wunderground v.1.15,2013-03-12 13:05:00,
2013-03-12 09:10:00,42.5,40.9,30.17,WNW,298,2.0,2.0,94,0.00,,,0.00,Wunderground v.1.15,2013-03-12 13:10:00,
2013-03-12 09:15:00,42.7,41.1,30.17,South,191,2.0,6.0,94,0.00,,,0.00,Wunderground v.1.15,2013-03-12 13:15:00,
2013-03-12 09:20:00,43.0,41.4,30.16,South,191,4.0,4.0,94,0.00,,,0.00,Wunderground v.1.15,2013-03-12 13:20:00,
2013-03-12 09:25:00,43.0,41.4,30.17,SSW,204,4.0,4.0,94,0.00,,,0.00,Wunderground v.1.15,2013-03-12 13:25:00,
2013-03-12 09:30:00,43.1,41.5,30.16,NE,46,3.0,3.0,94,0.00,,,0.00,Wunderground v.1.15,2013-03-12 13:30:00,
2013-03-12 09:35:00,43.1,41.5,30.16,North,360,1.0,3.0,94,0.00,,,0.00,Wunderground v.1.15,2013-03-12 13:35:00,
2013-03-12 09:40:00,43.1,41.5,30.16,North,360,1.0,2.0,94,0.00,,,0.00,Wunderground v.1.15,2013-03-12 13:40:00,
2013-03-12 09:45:00,43.1,41.5,30.16,SE,134,2.0,2.0,94,0.00,,,0.00,Wunderground v.1.15,2013-03-12 13:45:00,
2013-03-12 09:50:00,43.1,41.5,30.15,SSW,209,2.0,5.0,94,0.00,,,0.01,Wunderground v.1.15,2013-03-12 13:50:00,
2013-03-12 09:55:00,43.4,41.8,30.15,SW,223,4.0,5.0,94,0.00,,,0.01,Wunderground v.1.15,2013-03-12 13:55:00,
2013-03-12 10:00:00,43.4,41.8,30.15,West,263,4.0,6.0,94,0.00,,,0.01,Wunderground v.1.15,2013-03-12 14:00:00,
2013-03-12 10:10:00,43.7,42.1,30.16,NW,313,5.0,5.0,94,0.04,,,0.02,Wunderground v.1.15,2013-03-12 14:10:00,
2013-03-12 10:15:00,43.8,42.2,30.15,WSW,251,4.0,5.0,94,0.08,,,0.03,Wunderground v.1.15,2013-03-12 14:15:00,
2013-03-12 10:20:00,43.9,42.3,30.15,SW,215,3.0,7.0,94,0.10,,,0.04,Wunderground v.1.15,2013-03-12 14:20:00,
2013-03-12 10:25:00,44.0,42.4,30.15,South,182,3.0,7.0,94,0.08,,,0.04,Wunderground v.1.15,2013-03-12 14:25:00,
2013-03-12 10:30:00,44.0,42.4,30.15,SSW,197,4.0,5.0,94,0.07,,,0.05,Wunderground v.1.15,2013-03-12 14:30:00,
2013-03-12 10:35:00,44.1,42.5,30.15,West,277,4.0,5.0,94,0.07,,,0.05,Wunderground v.1.15,2013-03-12 14:35:00,
2013-03-12 10:40:00,44.2,42.6,30.15,WSW,246,4.0,11.0,94,0.06,,,0.06,Wunderground v.1.15,2013-03-12 14:40:00,
2013-03-12 10:45:00,44.3,42.7,30.15,SW,222,4.0,11.0,94,0.08,,,0.07,Wunderground v.1.15,2013-03-12 14:45:00,
2013-03-12 10:50:00,44.3,42.4,30.15,NE,48,4.0,4.0,93,0.14,,,0.08,Wunderground v.1.15,2013-03-12 14:50:00,
2013-03-12 10:55:00,44.3,42.4,30.14,NW,319,2.0,4.0,93,0.12,,,0.09,Wunderground v.1.15,2013-03-12 14:55:00,
2013-03-12 11:00:00,44.4,42.5,30.14,SSE,161,3.0,5.0,93,0.16,,,0.10,Wunderground v.1.15,2013-03-12 15:00:00,
2013-03-12 11:10:00,44.6,43.0,30.13,SSW,209,4.0,5.0,94,0.11,,,0.12,Wunderground v.1.15,2013-03-12 15:10:00,
2013-03-12 11:15:00,44.7,43.1,30.13,WSW,242,5.0,5.0,94,0.09,,,0.12,Wunderground v.1.15,2013-03-12 15:15:00,
2013-03-12 11:20:00,44.7,43.1,30.13,SW,218,5.0,5.0,94,0.05,,,0.12,Wunderground v.1.15,2013-03-12 15:20:00,
2013-03-12 11:25:00,44.6,43.0,30.13,West,265,5.0,5.0,94,0.04,,,0.12,Wunderground v.1.15,2013-03-12 15:25:00,
2013-03-12 11:30:00,44.6,43.0,30.13,South,182,5.0,6.0,94,0.00,,,0.12,Wunderground v.1.15,2013-03-12 15:30:00,
2013-03-12 11:35:00,44.5,42.9,30.13,WSW,249,4.0,6.0,94,0.00,,,0.12,Wunderground v.1.15,2013-03-12 15:35:00,
2013-03-12 11:45:00,44.5,43.2,30.13,SE,134,3.0,4.0,95,0.00,,,0.13,Wunderground v.1.15,2013-03-12 15:45:00,
2013-03-12 11:55:00,44.5,43.2,30.12,SSW,196,3.0,3.0,95,0.00,,,0.13,Wunderground v.1.15,2013-03-12 15:55:00,
2013-03-12 12:00:00,44.5,43.2,30.12,SSW,200,3.0,3.0,95,0.00,,,0.13,Wunderground v.1.15,2013-03-12 16:00:00,
2013-03-12 12:05:00,44.5,43.2,30.12,WSW,238,3.0,9.0,95,0.00,,,0.13,Wunderground v.1.15,2013-03-12 16:05:00,
2013-03-12 12:10:00,44.6,43.3,30.12,WSW,247,3.0,5.0,95,0.00,,,0.13,Wunderground v.1.15,2013-03-12 16:10:00,
2013-03-12 12:15:00,44.6,43.3,30.12,ESE,115,4.0,5.0,95,0.00,,,0.13,Wunderground v.1.15,2013-03-12 16:15:00,
2013-03-12 12:25:00,44.6,43.3,30.11,SSE,155,3.0,6.0,95,0.00,,,0.14,Wunderground v.1.15,2013-03-12 16:25:00,
2013-03-12 12:30:00,44.6,43.3,30.11,West,277,3.0,3.0,95,0.16,,,0.15,Wunderground v.1.15,2013-03-12 16:30:00,
2013-03-12 12:40:00,44.8,43.5,30.11,WNW,296,2.0,6.0,95,0.04,,,0.15,Wunderground v.1.15,2013-03-12 16:40:00,
2013-03-12 12:45:00,44.9,43.6,30.11,WSW,250,3.0,6.0,95,0.00,,,0.15,Wunderground v.1.15,2013-03-12 16:45:00,
2013-03-12 12:50:00,44.8,43.5,30.11,SW,216,3.0,3.0,95,0.00,,,0.16,Wunderground v.1.15,2013-03-12 16:50:00,
2013-03-12 12:55:00,44.9,43.6,30.10,NNW,344,2.0,3.0,95,0.00,,,0.16,Wunderground v.1.15,2013-03-12 16:55:00,
2013-03-12 13:00:00,45.0,43.7,30.10,West,263,2.0,2.0,95,0.00,,,0.16,Wunderground v.1.15,2013-03-12 17:00:00,
2013-03-12 13:05:00,45.0,43.7,30.09,NE,45,2.0,2.0,95,0.00,,,0.16,Wunderground v.1.15,2013-03-12 17:05:00,
2013-03-12 13:10:00,45.0,43.7,30.09,East,87,2.0,2.0,95,0.00,,,0.16,Wunderground v.1.15,2013-03-12 17:10:00,
2013-03-12 13:15:00,45.3,44.2,30.09,WNW,289,3.0,3.0,96,0.00,,,0.17,Wunderground v.1.15,2013-03-12 17:15:00,
2013-03-12 13:20:00,45.2,43.9,30.09,North,9,3.0,3.0,95,0.00,,,0.17,Wunderground v.1.15,2013-03-12 17:20:00,
2013-03-12 13:30:00,45.1,43.8,30.09,NE,34,2.0,3.0,95,0.00,,,0.17,Wunderground v.1.15,2013-03-12 17:30:00,
2013-03-12 13:35:00,45.2,43.9,30.08,NW,304,2.0,3.0,95,0.00,,,0.17,Wunderground v.1.15,2013-03-12 17:35:00,
2013-03-12 13:40:00,45.6,44.5,30.08,South,186,3.0,11.0,96,0.00,,,0.17,Wunderground v.1.15,2013-03-12 17:40:00,
2013-03-12 13:50:00,45.9,44.5,30.08,SSW,195,3.0,3.0,95,0.00,,,0.17,Wunderground v.1.15,2013-03-12 17:50:00,
2013-03-12 13:55:00,46.0,44.9,30.08,SE,144,2.0,3.0,96,0.00,,,0.18,Wunderground v.1.15,2013-03-12 17:55:00,
2013-03-12 14:00:00,46.2,44.8,30.07,SSW,196,2.0,2.0,95,0.00,,,0.18,Wunderground v.1.15,2013-03-12 18:00:00,
2013-03-12 14:10:00,46.2,44.8,30.07,East,95,3.0,3.0,95,0.05,,,0.19,Wunderground v.1.15,2013-03-12 18:10:00,
2013-03-12 14:15:00,46.3,44.9,30.06,SW,224,3.0,3.0,95,0.05,,,0.19,Wunderground v.1.15,2013-03-12 18:15:00,
2013-03-12 14:20:00,46.3,44.9,30.06,South,190,4.0,4.0,95,0.00,,,0.19,Wunderground v.1.15,2013-03-12 18:20:00,
2013-03-12 14:30:00,46.5,45.1,30.06,South,187,3.0,3.0,95,0.00,,,0.20,Wunderground v.1.15,2013-03-12 18:30:00,
2013-03-12 14:35:00,46.5,45.1,30.06,WSW,240,2.0,3.0,95,0.00,,,0.20,Wunderground v.1.15,2013-03-12 18:35:00,
2013-03-12 14:45:00,46.8,45.4,30.05,SSE,162,2.0,4.0,95,0.00,,,0.20,Wunderground v.1.15,2013-03-12 18:45:00,
2013-03-12 14:50:00,46.9,45.5,30.04,NNW,338,3.0,3.0,95,0.00,,,0.20,Wunderground v.1.15,2013-03-12 18:50:00,
2013-03-12 14:55:00,47.0,45.6,30.04,NW,318,3.0,3.0,95,0.00,,,0.20,Wunderground v.1.15,2013-03-12 18:55:00,
2013-03-12 15:00:00,47.0,45.6,30.04,WNW,298,2.0,4.0,95,0.00,,,0.20,Wunderground v.1.15,2013-03-12 19:00:00,
2013-03-12 15:05:00,47.0,45.6,30.04,South,169,3.0,4.0,95,0.00,,,0.20,Wunderground v.1.15,2013-03-12 19:05:00,
2013-03-12 15:10:00,47.0,45.6,30.03,SSE,150,4.0,8.0,95,0.00,,,0.20,Wunderground v.1.15,2013-03-12 19:10:00,
2013-03-12 15:15:00,47.1,45.5,30.03,SW,231,4.0,8.0,94,0.00,,,0.21,Wunderground v.1.15,2013-03-12 19:15:00,
2013-03-12 15:20:00,47.2,45.6,30.03,SSE,157,4.0,4.0,94,0.00,,,0.21,Wunderground v.1.15,2013-03-12 19:20:00,
2013-03-12 15:25:00,47.3,45.7,30.03,East,101,4.0,4.0,94,0.00,,,0.21,Wunderground v.1.15,2013-03-12 19:25:00,
2013-03-12 15:35:00,47.2,45.6,30.02,SSE,160,3.0,3.0,94,0.00,,,0.22,Wunderground v.1.15,2013-03-12 19:35:00,
2013-03-12 15:40:00,47.2,45.6,30.02,East,97,3.0,3.0,94,0.09,,,0.23,Wunderground v.1.15,2013-03-12 19:40:00,
2013-03-12 15:45:00,47.2,45.6,30.02,SSE,157,3.0,3.0,94,0.17,,,0.24,Wunderground v.1.15,2013-03-12 19:45:00,
2013-03-12 15:50:00,47.2,45.6,30.01,SE,134,3.0,5.0,94,0.12,,,0.25,Wunderground v.1.15,2013-03-12 19:50:00,
2013-03-12 15:55:00,47.1,45.5,30.01,SE,129,4.0,5.0,94,0.17,,,0.26,Wunderground v.1.15,2013-03-12 19:55:00,
2013-03-12 16:00:00,47.0,45.4,30.01,SE,140,4.0,4.0,94,0.20,,,0.28,Wunderground v.1.15,2013-03-12 20:00:00,
2013-03-12 16:05:00,46.9,45.0,30.01,SE,142,4.0,4.0,93,0.14,,,0.29,Wunderground v.1.15,2013-03-12 20:05:00,
2013-03-12 16:10:00,46.8,45.2,30.01,ESE,104,3.0,3.0,94,0.19,,,0.30,Wunderground v.1.15,2013-03-12 20:10:00,
2013-03-12 16:15:00,46.8,45.2,30.01,ENE,61,3.0,6.0,94,0.14,,,0.31,Wunderground v.1.15,2013-03-12 20:15:00,
2013-03-12 16:20:00,46.7,45.1,30.01,South,173,4.0,4.0,94,0.13,,,0.32,Wunderground v.1.15,2013-03-12 20:20:00,
2013-03-12 16:25:00,46.7,45.1,30.01,ESE,107,3.0,5.0,94,0.09,,,0.33,Wunderground v.1.15,2013-03-12 20:25:00,
2013-03-12 16:30:00,46.7,45.1,30.00,SE,142,3.0,4.0,94,0.11,,,0.34,Wunderground v.1.15,2013-03-12 20:30:00,
2013-03-12 16:35:00,46.7,45.1,30.00,SSE,158,4.0,4.0,94,0.09,,,0.34,Wunderground v.1.15,2013-03-12 20:35:00,
2013-03-12 16:40:00,46.6,45.0,30.00,SE,124,3.0,3.0,94,0.07,,,0.35,Wunderground v.1.15,2013-03-12 20:40:00,
2013-03-12 16:45:00,46.4,44.8,30.00,SSE,151,3.0,4.0,94,0.10,,,0.36,Wunderground v.1.15,2013-03-12 20:45:00,
2013-03-12 16:50:00,46.3,44.7,30.00,ESE,116,4.0,4.0,94,0.09,,,0.37,Wunderground v.1.15,2013-03-12 20:50:00,
2013-03-12 16:55:00,46.2,44.6,29.99,ENE,72,5.0,5.0,94,0.15,,,0.38,Wunderground v.1.15,2013-03-12 20:55:00,
2013-03-12 17:00:00,46.0,44.4,29.99,East,86,5.0,5.0,94,0.08,,,0.38,Wunderground v.1.15,2013-03-12 21:00:00,
2013-03-12 17:05:00,45.9,44.3,29.99,SE,128,4.0,5.0,94,0.07,,,0.39,Wunderground v.1.15,2013-03-12 21:05:00,
2013-03-12 17:10:00,45.7,44.1,29.99,SSW,212,3.0,4.0,94,0.08,,,0.40,Wunderground v.1.15,2013-03-12 21:10:00,
2013-03-12 17:15:00,45.6,44.3,29.98,ENE,58,3.0,6.0,95,0.08,,,0.40,Wunderground v.1.15,2013-03-12 21:15:00,
2013-03-12 17:20:00,45.6,44.3,29.98,East,87,5.0,5.0,95,0.06,,,0.41,Wunderground v.1.15,2013-03-12 21:20:00,
2013-03-12 17:25:00,45.6,44.3,29.97,ESE,114,5.0,5.0,95,0.11,,,0.42,Wunderground v.1.15,2013-03-12 21:25:00,
2013-03-12 17:30:00,45.7,44.4,29.97,East,82,5.0,5.0,95,0.11,,,0.42,Wunderground v.1.15,2013-03-12 21:30:00,
2013-03-12 17:35:00,45.7,44.4,29.97,SSE,162,4.0,5.0,95,0.08,,,0.43,Wunderground v.1.15,2013-03-12 21:35:00,
2013-03-12 17:40:00,45.9,44.5,29.97,ENE,75,4.0,4.0,95,0.15,,,0.44,Wunderground v.1.15,2013-03-12 21:40:00,
2013-03-12 17:45:00,46.0,44.6,29.97,SE,134,4.0,8.0,95,0.17,,,0.46,Wunderground v.1.15,2013-03-12 21:45:00,
2013-03-12 17:55:00,46.5,44.9,29.97,SE,133,5.0,8.0,94,0.18,,,0.48,Wunderground v.1.15,2013-03-12 21:55:00,
2013-03-12 18:00:00,46.4,44.8,29.96,ENE,71,5.0,5.0,94,0.09,,,0.48,Wunderground v.1.15,2013-03-12 22:00:00,
2013-03-12 18:05:00,46.3,44.7,29.96,ESE,109,5.0,5.0,94,0.07,,,0.49,Wunderground v.1.15,2013-03-12 22:05:00,
2013-03-12 18:10:00,46.3,44.7,29.96,SE,133,4.0,4.0,94,0.16,,,0.50,Wunderground v.1.15,2013-03-12 22:10:00,
2013-03-12 18:15:00,46.2,44.6,29.96,SE,140,4.0,6.0,94,0.09,,,0.51,Wunderground v.1.15,2013-03-12 22:15:00,
2013-03-12 18:20:00,46.2,44.6,29.96,ESE,116,4.0,7.0,94,0.13,,,0.52,Wunderground v.1.15,2013-03-12 22:20:00,
2013-03-12 18:25:00,46.2,44.6,29.95,SSE,165,5.0,7.0,94,0.08,,,0.52,Wunderground v.1.15,2013-03-12 22:25:00,
2013-03-12 18:30:00,46.3,44.9,29.95,ESE,109,5.0,5.0,95,0.06,,,0.53,Wunderground v.1.15,2013-03-12 22:30:00,
2013-03-12 18:35:00,46.3,44.9,29.95,ENE,72,5.0,5.0,95,0.14,,,0.54,Wunderground v.1.15,2013-03-12 22:35:00,
2013-03-12 18:40:00,46.3,44.9,29.95,SE,135,4.0,4.0,95,0.08,,,0.54,Wunderground v.1.15,2013-03-12 22:40:00,
2013-03-12 18:45:00,46.3,44.9,29.95,East,94,5.0,5.0,95,0.07,,,0.55,Wunderground v.1.15,2013-03-12 22:45:00,
2013-03-12 18:50:00,46.4,45.0,29.95,ENE,75,5.0,5.0,95,0.14,,,0.56,Wunderground v.1.15,2013-03-12 22:50:00,
2013-03-12 18:55:00,46.3,44.7,29.94,ESE,111,6.0,6.0,94,0.06,,,0.56,Wunderground v.1.15,2013-03-12 22:55:00,
2013-03-12 19:00:00,46.2,44.8,29.94,East,86,6.0,6.0,95,0.19,,,0.58,Wunderground v.1.15,2013-03-12 23:00:00,
2013-03-12 19:10:00,45.7,44.1,29.93,ENE,73,4.0,4.0,94,0.09,,,0.59,Wunderground v.1.15,2013-03-12 23:10:00,
2013-03-12 19:15:00,45.6,44.3,29.93,ENE,78,3.0,4.0,95,0.15,,,0.61,Wunderground v.1.15,2013-03-12 23:15:00,
2013-03-12 19:20:00,45.5,43.9,29.93,ENE,78,3.0,5.0,94,0.18,,,0.62,Wunderground v.1.15,2013-03-12 23:20:00,
2013-03-12 19:25:00,45.5,44.2,29.93,SE,130,3.0,5.0,95,0.10,,,0.63,Wunderground v.1.15,2013-03-12 23:25:00,
2013-03-12 19:30:00,45.6,44.3,29.92,SSE,148,4.0,9.0,95,0.15,,,0.64,Wunderground v.1.15,2013-03-12 23:30:00,
2013-03-12 19:35:00,45.7,44.4,29.92,NE,56,4.0,9.0,95,0.25,,,0.66,Wunderground v.1.15,2013-03-12 23:35:00,
2013-03-12 19:40:00,45.9,44.8,29.92,ESE,107,5.0,5.0,96,0.38,,,0.68,Wunderground v.1.15,2013-03-12 23:40:00,
2013-03-12 19:45:00,45.8,44.4,29.92,ESE,112,5.0,5.0,95,0.15,,,0.69,Wunderground v.1.15,2013-03-12 23:45:00,
2013-03-12 19:50:00,45.8,44.4,29.92,ESE,120,5.0,7.0,95,0.50,,,0.72,Wunderground v.1.15,2013-03-12 23:50:00,
2013-03-12 19:55:00,45.9,44.5,29.91,East,84,4.0,7.0,95,0.22,,,0.73,Wunderground v.1.15,2013-03-12 23:55:00,
2013-03-12 20:00:00,45.7,44.4,29.91,ENE,63,4.0,4.0,95,0.13,,,0.75,Wunderground v.1.15,2013-03-13 00:00:00,
2013-03-12 20:05:00,45.6,44.0,29.90,South,169,4.0,4.0,94,0.23,,,0.76,Wunderground v.1.15,2013-03-13 00:05:00,
2013-03-12 20:10:00,45.6,44.3,29.90,NE,51,4.0,4.0,95,0.39,,,0.79,Wunderground v.1.15,2013-03-13 00:10:00,
2013-03-12 20:15:00,45.5,44.2,29.90,ENE,75,4.0,4.0,95,0.14,,,0.81,Wunderground v.1.15,2013-03-13 00:15:00,
2013-03-12 20:20:00,45.5,44.2,29.89,SE,126,4.0,4.0,95,0.20,,,0.82,Wunderground v.1.15,2013-03-13 00:20:00,
2013-03-12 20:25:00,45.6,44.3,29.89,ENE,65,5.0,7.0,95,0.28,,,0.84,Wunderground v.1.15,2013-03-13 00:25:00,
2013-03-12 20:30:00,45.4,44.1,29.89,ENE,59,5.0,5.0,95,0.14,,,0.85,Wunderground v.1.15,2013-03-13 00:30:00,
2013-03-12 20:35:00,45.3,44.0,29.88,East,86,4.0,5.0,95,0.47,,,0.88,Wunderground v.1.15,2013-03-13 00:35:00,
2013-03-12 20:40:00,45.4,44.1,29.88,SE,130,4.0,10.0,95,0.19,,,0.89,Wunderground v.1.15,2013-03-13 00:40:00,
2013-03-12 20:45:00,45.5,44.2,29.88,East,96,5.0,10.0,95,0.13,,,0.90,Wunderground v.1.15,2013-03-13 00:45:00,
2013-03-12 20:50:00,45.4,44.1,29.87,NE,40,5.0,5.0,95,0.07,,,0.91,Wunderground v.1.15,2013-03-13 00:50:00,
2013-03-12 20:55:00,45.2,43.9,29.87,SSE,150,4.0,11.0,95,0.07,,,0.91,Wunderground v.1.15,2013-03-13 00:55:00,
2013-03-12 21:00:00,45.3,44.0,29.87,SSW,192,5.0,5.0,95,0.08,,,0.92,Wunderground v.1.15,2013-03-13 01:00:00,
2013-03-12 21:05:00,45.0,43.7,29.86,East,100,4.0,5.0,95,0.07,,,0.92,Wunderground v.1.15,2013-03-13 01:05:00,
2013-03-12 21:10:00,44.9,43.6,29.86,ENE,76,3.0,5.0,95,0.05,,,0.92,Wunderground v.1.15,2013-03-13 01:10:00,
2013-03-12 21:15:00,44.9,43.6,29.86,ENE,64,4.0,5.0,95,0.13,,,0.94,Wunderground v.1.15,2013-03-13 01:15:00,
2013-03-12 21:20:00,45.0,43.7,29.85,SE,130,5.0,7.0,95,0.32,,,0.96,Wunderground v.1.15,2013-03-13 01:20:00,
2013-03-12 21:25:00,45.0,43.7,29.85,SSE,166,5.0,7.0,95,0.08,,,0.96,Wunderground v.1.15,2013-03-13 01:25:00,
2013-03-12 21:30:00,45.2,43.9,29.85,ESE,110,4.0,4.0,95,0.05,,,0.96,Wunderground v.1.15,2013-03-13 01:30:00,
2013-03-12 21:35:00,45.3,44.0,29.85,ESE,102,4.0,4.0,95,0.00,,,0.96,Wunderground v.1.15,2013-03-13 01:35:00,
2013-03-12 21:40:00,45.4,44.1,29.85,SE,142,4.0,4.0,95,0.00,,,0.96,Wunderground v.1.15,2013-03-13 01:40:00,
2013-03-12 21:45:00,45.6,44.3,29.85,SE,129,5.0,5.0,95,0.00,,,0.96,Wunderground v.1.15,2013-03-13 01:45:00,
2013-03-12 21:50:00,45.6,44.3,29.85,SSE,165,5.0,5.0,95,0.00,,,0.96,Wunderground v.1.15,2013-03-13 01:50:00,
2013-03-12 21:55:00,45.9,44.5,29.85,SW,234,4.0,5.0,95,0.00,,,0.96,Wunderground v.1.15,2013-03-13 01:55:00,
2013-03-12 22:00:00,46.1,45.0,29.85,South,169,3.0,5.0,96,0.00,,,0.97,Wunderground v.1.15,2013-03-13 02:00:00,
2013-03-12 22:05:00,46.2,44.8,29.84,WNW,290,5.0,5.0,95,0.00,,,0.97,Wunderground v.1.15,2013-03-13 02:05:00,
2013-03-12 22:10:00,46.3,44.9,29.84,SE,140,4.0,4.0,95,0.00,,,0.97,Wunderground v.1.15,2013-03-13 02:10:00,
2013-03-12 22:15:00,46.4,45.0,29.84,SE,131,3.0,4.0,95,0.00,,,0.97,Wunderground v.1.15,2013-03-13 02:15:00,
2013-03-12 22:20:00,46.6,45.2,29.84,South,189,3.0,4.0,95,0.00,,,0.97,Wunderground v.1.15,2013-03-13 02:20:00,
2013-03-12 22:25:00,46.7,45.3,29.83,SSE,161,3.0,4.0,95,0.00,,,0.97,Wunderground v.1.15,2013-03-13 02:25:00,
2013-03-12 22:30:00,46.6,45.2,29.83,SSE,154,2.0,3.0,95,0.00,,,0.97,Wunderground v.1.15,2013-03-13 02:30:00,
2013-03-12 22:35:00,46.7,45.3,29.83,WSW,246,2.0,3.0,95,0.00,,,0.97,Wunderground v.1.15,2013-03-13 02:35:00,
2013-03-12 22:40:00,46.7,45.3,29.83,West,265,3.0,6.0,95,0.00,,,0.97,Wunderground v.1.15,2013-03-13 02:40:00,
2013-03-12 22:45:00,47.0,45.9,29.83,South,173,4.0,6.0,96,0.00,,,0.97,Wunderground v.1.15,2013-03-13 02:45:00,
2013-03-12 22:55:00,47.2,46.1,29.83,SW,220,4.0,5.0,96,0.00,,,0.97,Wunderground v.1.15,2013-03-13 02:55:00,
2013-03-12 23:00:00,47.3,45.9,29.83,WNW,291,4.0,5.0,95,0.00,,,0.98,Wunderground v.1.15,2013-03-13 03:00:00,
2013-03-12 23:05:00,47.3,45.9,29.83,West,263,3.0,7.0,95,0.00,,,0.98,Wunderground v.1.15,2013-03-13 03:05:00,
2013-03-12 23:10:00,47.2,45.8,29.83,West,279,4.0,4.0,95,0.00,,,0.98,Wunderground v.1.15,2013-03-13 03:10:00,
2013-03-12 23:15:00,47.2,45.8,29.83,SSW,199,4.0,4.0,95,0.00,,,0.98,Wunderground v.1.15,2013-03-13 03:15:00,
2013-03-12 23:20:00,47.2,45.8,29.83,WSW,248,4.0,4.0,95,0.00,,,0.98,Wunderground v.1.15,2013-03-13 03:20:00,
2013-03-12 23:25:00,47.1,45.7,29.83,WSW,240,4.0,5.0,95,0.00,,,0.98,Wunderground v.1.15,2013-03-13 03:25:00,
2013-03-12 23:30:00,47.1,45.7,29.83,WSW,244,4.0,6.0,95,0.00,,,0.98,Wunderground v.1.15,2013-03-13 03:30:00,
2013-03-12 23:35:00,47.2,46.1,29.83,SW,227,6.0,6.0,96,0.00,,,0.98,Wunderground v.1.15,2013-03-13 03:35:00,
2013-03-12 23:40:00,47.3,46.2,29.83,WSW,237,6.0,6.0,96,0.00,,,0.98,Wunderground v.1.15,2013-03-13 03:40:00,
2013-03-12 23:45:00,47.4,46.3,29.83,SW,221,5.0,6.0,96,0.00,,,0.98,Wunderground v.1.15,2013-03-13 03:45:00,
2013-03-12 23:50:00,47.3,46.2,29.82,SW,225,4.0,4.0,96,0.00,,,0.98,Wunderground v.1.15,2013-03-13 03:50:00,
2013-03-12 23:55:00,47.2,46.1,29.82,SW,229,4.0,6.0,96,0.00,,,0.98,Wunderground v.1.15,2013-03-13 03:55:00,